createdAt,value
2019-04-27T00:01:19.792Z,100119.16
2019-04-27T00:04:16.210Z,100123.00
2019-04-27T00:06:54.094Z,100125.17
2019-04-27T00:09:50.082Z,100122.53
2019-04-27T00:12:16.546Z,100125.52
2019-04-27T00:14:48.434Z,100126.59
2019-04-27T00:17:48.649Z,100127.69
2019-04-27T00:20:24.210Z,100117.72
2019-04-27T00:23:00.308Z,100131.40
2019-04-27T00:25:37.228Z,100116.16
2019-04-27T00:28:15.098Z,100109.92
2019-04-27T00:30:47.712Z,100108.58
2019-04-27T00:33:17.541Z,100102.47
2019-04-27T00:36:03.042Z,100115.08
2019-04-27T00:38:41.505Z,100121.31
2019-04-27T00:41:14.255Z,100114.95
2019-04-27T00:43:44.638Z,100111.47
2019-04-27T00:46:16.094Z,100113.63
2019-04-27T00:48:46.231Z,100118.92
2019-04-27T00:51:16.268Z,100108.13
2019-04-27T00:53:48.310Z,100097.65
2019-04-27T00:56:38.929Z,100091.51
2019-04-27T00:59:24.006Z,100088.19
2019-04-27T01:02:03.801Z,100088.20
2019-04-27T01:04:34.168Z,100085.05
2019-04-27T01:07:04.592Z,100083.25
2019-04-27T01:09:34.366Z,100085.76
2019-04-27T01:12:05.042Z,100085.55
2019-04-27T01:14:34.973Z,100077.83
2019-04-27T01:17:04.742Z,100076.26
2019-04-27T01:19:34.367Z,100074.58
2019-04-27T01:22:08.722Z,100082.85
2019-04-27T01:24:39.375Z,100080.33
2019-04-27T01:27:26.638Z,100085.49
2019-04-27T01:29:58.784Z,100080.59
2019-04-27T01:32:29.248Z,100082.77
2019-04-27T01:34:59.614Z,100082.59
2019-04-27T01:37:29.353Z,100087.06
2019-04-27T01:39:59.122Z,100086.09
2019-04-27T01:42:29.505Z,100081.65
2019-04-27T01:44:59.531Z,100088.60
2019-04-27T01:47:30.693Z,100094.34
2019-04-27T01:50:00.771Z,100094.86
2019-04-27T01:52:31.260Z,100096.20
2019-04-27T01:55:02.620Z,100100.75
2019-04-27T01:57:34.447Z,100103.05
2019-04-27T02:00:19.372Z,100101.95
2019-04-27T02:02:54.744Z,100103.73
2019-04-27T02:05:39.124Z,100097.25
2019-04-27T02:08:09.531Z,100101.80
2019-04-27T02:10:39.674Z,100097.71
2019-04-27T02:13:10.732Z,100092.76
2019-04-27T02:15:41.004Z,100093.98
2019-04-27T02:18:11.379Z,100094.20
2019-04-27T02:20:44.285Z,100082.04
2019-04-27T02:23:13.071Z,100077.25
2019-04-27T02:25:42.745Z,100086.13
2019-04-27T02:28:30.676Z,100088.03
2019-04-27T02:31:40.423Z,100092.34
2019-04-27T02:34:13.198Z,100093.56
2019-04-27T02:36:42.939Z,100085.19
2019-04-27T02:39:14.274Z,100077.34
2019-04-27T02:41:44.107Z,100079.84
2019-04-27T02:44:30.113Z,100079.70
2019-04-27T02:47:01.034Z,100086.10
2019-04-27T02:49:30.745Z,100095.47
2019-04-27T02:52:19.980Z,100087.99
2019-04-27T02:54:50.523Z,100098.33
2019-04-27T02:57:21.971Z,100091.84
2019-04-27T02:59:53.184Z,100088.22
2019-04-27T03:02:31.875Z,100087.36
2019-04-27T03:05:01.814Z,100096.83
2019-04-27T03:07:33.375Z,100096.83
2019-04-27T03:10:03.831Z,100099.22
2019-04-27T03:12:42.005Z,100093.05
2019-04-27T03:15:30.600Z,100087.42
2019-04-27T03:18:10.191Z,100081.16
2019-04-27T03:20:50.382Z,100074.95
2019-04-27T03:23:20.130Z,100070.02
2019-04-27T03:25:56.341Z,100072.81
2019-04-27T03:28:26.333Z,100075.98
2019-04-27T03:30:56.521Z,100070.95
2019-04-27T03:33:27.069Z,100074.81
2019-04-27T03:35:57.057Z,100073.73
2019-04-27T03:38:29.991Z,100076.84
2019-04-27T03:41:00.676Z,100075.05
2019-04-27T03:43:30.816Z,100077.32
2019-04-27T03:46:02.040Z,100074.09
2019-04-27T03:48:31.561Z,100071.37
2019-04-27T03:51:20.131Z,100071.37
2019-04-27T03:54:14.053Z,100071.38
2019-04-27T03:56:59.132Z,100073.30
2019-04-27T03:59:34.327Z,100081.30
2019-04-27T04:02:04.046Z,100082.43
2019-04-27T04:04:34.628Z,100078.20
2019-04-27T04:07:16.941Z,100076.02
2019-04-27T04:09:46.867Z,100073.38
2019-04-27T04:12:44.686Z,100073.95
2019-04-27T04:15:23.124Z,100080.62
2019-04-27T04:17:52.841Z,100088.65
2019-04-27T04:20:22.816Z,100083.95
2019-04-27T04:22:52.850Z,100087.69
2019-04-27T04:25:23.176Z,100090.80
2019-04-27T04:27:53.891Z,100090.52
2019-04-27T04:30:24.310Z,100096.80
2019-04-27T04:32:53.884Z,100093.05
2019-04-27T04:35:25.535Z,100099.44
2019-04-27T04:37:55.302Z,100095.36
2019-04-27T04:40:35.066Z,100104.23
2019-04-27T04:43:20.008Z,100101.97
2019-04-27T04:46:13.079Z,100097.40
2019-04-27T04:48:42.350Z,100091.98
2019-04-27T04:51:12.240Z,100093.52
2019-04-27T04:53:42.345Z,100097.87
2019-04-27T04:56:12.215Z,100089.20
2019-04-27T04:58:41.826Z,100088.59
2019-04-27T05:01:12.327Z,100087.48
2019-04-27T05:03:41.871Z,100083.74
2019-04-27T05:06:11.639Z,100089.96
2019-04-27T05:08:41.522Z,100084.11
2019-04-27T05:11:11.562Z,100081.00
2019-04-27T05:13:42.795Z,100084.36
2019-04-27T05:16:12.645Z,100086.53
2019-04-27T05:18:42.355Z,100089.22
2019-04-27T05:21:23.767Z,100092.58
2019-04-27T05:23:53.524Z,100093.75
2019-04-27T05:26:23.701Z,100094.33
2019-04-27T05:28:54.310Z,100097.28
2019-04-27T05:31:25.215Z,100096.33
2019-04-27T05:33:56.054Z,100096.50
2019-04-27T05:36:26.016Z,100100.91
2019-04-27T05:38:56.326Z,100100.41
2019-04-27T05:41:26.548Z,100102.52
2019-04-27T05:44:31.037Z,100093.41
2019-04-27T05:47:19.862Z,100087.68
2019-04-27T05:49:54.657Z,100089.06
2019-04-27T05:52:29.977Z,100085.03
2019-04-27T05:55:00.595Z,100088.56
2019-04-27T05:57:31.410Z,100092.69
2019-04-27T06:00:06.246Z,100093.70
2019-04-27T06:02:36.039Z,100100.10
2019-04-27T06:05:08.693Z,100090.48
2019-04-27T06:07:39.594Z,100089.88
2019-04-27T06:10:09.690Z,100082.41
2019-04-27T06:12:39.638Z,100086.27
2019-04-27T06:15:14.147Z,100080.75
2019-04-27T06:17:44.719Z,100075.92
2019-04-27T06:20:16.306Z,100070.38
2019-04-27T06:22:48.938Z,100068.14
2019-04-27T06:25:22.488Z,100074.00
2019-04-27T06:27:55.467Z,100066.81
2019-04-27T06:30:24.849Z,100066.33
2019-04-27T06:32:55.068Z,100064.30
2019-04-27T06:35:25.219Z,100069.72
2019-04-27T06:38:00.186Z,100065.59
2019-04-27T06:40:31.574Z,100073.74
2019-04-27T06:43:03.281Z,100065.78
2019-04-27T06:45:32.855Z,100055.16
2019-04-27T06:48:03.688Z,100065.37
2019-04-27T06:50:33.190Z,100065.73
2019-04-27T06:53:03.110Z,100067.29
2019-04-27T06:55:33.401Z,100070.65
2019-04-27T06:58:04.450Z,100070.80
2019-04-27T07:00:39.524Z,100071.60
2019-04-27T07:03:12.125Z,100078.17
2019-04-27T07:05:41.841Z,100081.23
2019-04-27T07:08:12.589Z,100078.28
2019-04-27T07:10:44.564Z,100080.09
2019-04-27T07:13:15.495Z,100078.50
2019-04-27T07:15:48.523Z,100071.08
2019-04-27T07:18:18.727Z,100077.03
2019-04-27T07:20:48.612Z,100068.34
2019-04-27T07:23:18.754Z,100068.25
2019-04-27T07:25:50.938Z,100071.45
2019-04-27T07:28:21.046Z,100067.05
2019-04-27T07:30:50.609Z,100064.39
2019-04-27T07:33:22.563Z,100063.65
2019-04-27T07:35:52.628Z,100062.91
2019-04-27T07:38:22.452Z,100058.93
2019-04-27T07:40:54.234Z,100059.14
2019-04-27T07:43:39.884Z,100058.00
2019-04-27T07:46:10.464Z,100050.64
2019-04-27T07:48:40.650Z,100053.41
2019-04-27T07:51:11.103Z,100055.73
2019-04-27T07:53:41.943Z,100053.26
2019-04-27T07:56:11.952Z,100047.94
2019-04-27T07:58:42.360Z,100050.19
2019-04-27T08:01:14.292Z,100047.58
2019-04-27T08:03:48.930Z,100046.67
2019-04-27T08:06:19.156Z,100047.25
2019-04-27T08:08:49.299Z,100048.77
2019-04-27T08:11:19.893Z,100043.43
2019-04-27T08:13:50.229Z,100046.04
2019-04-27T08:16:20.739Z,100047.05
2019-04-27T08:18:51.764Z,100044.10
2019-04-27T08:21:23.108Z,100043.09
2019-04-27T08:23:53.146Z,100044.63
2019-04-27T08:26:35.211Z,100039.28
2019-04-27T08:29:24.545Z,100049.14
2019-04-27T08:31:58.563Z,100041.73
2019-04-27T08:34:35.355Z,100038.83
2019-04-27T08:37:09.133Z,100034.11
2019-04-27T08:39:39.778Z,100044.37
2019-04-27T08:42:09.638Z,100044.48
2019-04-27T08:44:39.842Z,100042.56
2019-04-27T08:47:09.686Z,100039.22
2019-04-27T08:49:39.837Z,100029.36
2019-04-27T08:52:09.635Z,100026.98
2019-04-27T08:54:39.593Z,100034.73
2019-04-27T08:57:09.820Z,100021.80
2019-04-27T08:59:39.600Z,100020.48
2019-04-27T09:02:09.362Z,100022.17
2019-04-27T09:04:40.511Z,100025.59
2019-04-27T09:07:29.466Z,100025.26
2019-04-27T09:10:05.667Z,100026.09
2019-04-27T09:12:50.102Z,100022.77
2019-04-27T09:15:39.985Z,100019.53
2019-04-27T09:18:10.376Z,100008.41
2019-04-27T09:20:43.657Z,100006.19
2019-04-27T09:23:13.335Z,100016.83
2019-04-27T09:25:43.367Z,100019.05
2019-04-27T09:28:14.410Z,100017.16
2019-04-27T09:30:44.543Z,100008.72
2019-04-27T09:33:15.400Z,100014.27
2019-04-27T09:35:46.594Z,100010.83
2019-04-27T09:38:18.535Z,100009.84
2019-04-27T09:40:48.106Z,100005.30
2019-04-27T09:43:17.457Z,99997.93
2019-04-27T09:45:47.274Z,100002.31
2019-04-27T09:48:17.674Z,100001.53
2019-04-27T09:50:48.672Z,99993.47
2019-04-27T09:53:18.593Z,100000.50
2019-04-27T09:55:47.891Z,99997.91
2019-04-27T09:58:23.140Z,99989.94
2019-04-27T10:00:52.521Z,99995.02
2019-04-27T10:03:23.660Z,99989.23
2019-04-27T10:05:53.954Z,99987.13
2019-04-27T10:08:26.152Z,99988.95
2019-04-27T10:10:57.111Z,99984.75
2019-04-27T10:13:29.183Z,99978.59
2019-04-27T10:15:59.980Z,99980.56
2019-04-27T10:18:30.134Z,99975.64
2019-04-27T10:21:02.236Z,99977.45
2019-04-27T10:23:31.895Z,99975.02
2019-04-27T10:26:02.116Z,99971.63
2019-04-27T10:28:32.110Z,99970.86
2019-04-27T10:31:03.483Z,99964.48
2019-04-27T10:33:35.765Z,99963.13
2019-04-27T10:36:06.972Z,99962.20
2019-04-27T10:38:39.948Z,99958.91
2019-04-27T10:41:13.652Z,99962.43
2019-04-27T10:43:43.787Z,99951.42
2019-04-27T10:46:15.727Z,99944.95
2019-04-27T10:48:45.921Z,99936.46
2019-04-27T10:51:16.105Z,99933.53
2019-04-27T10:53:46.025Z,99930.43
2019-04-27T10:56:19.328Z,99924.23
2019-04-27T10:58:49.258Z,99924.41
2019-04-27T11:01:22.569Z,99924.34
2019-04-27T11:04:25.958Z,99929.25
2019-04-27T11:07:02.586Z,99924.14
2019-04-27T11:09:32.420Z,99917.83
2019-04-27T11:12:02.665Z,99914.61
2019-04-27T11:14:41.738Z,99912.25
2019-04-27T11:17:12.477Z,99907.58
2019-04-27T11:19:42.392Z,99901.78
2019-04-27T11:22:12.173Z,99901.04
2019-04-27T11:24:42.184Z,99893.61
2019-04-27T11:27:13.006Z,99888.30
2019-04-27T11:29:42.560Z,99888.81
2019-04-27T11:32:12.421Z,99883.10
2019-04-27T11:35:19.326Z,99886.43
2019-04-27T11:37:50.747Z,99873.16
2019-04-27T11:40:22.175Z,99884.47
2019-04-27T11:42:52.856Z,99888.34
2019-04-27T11:45:26.484Z,99880.61
2019-04-27T11:47:59.825Z,99874.42
2019-04-27T11:50:29.477Z,99874.62
2019-04-27T11:52:59.193Z,99870.92
2019-04-27T11:55:29.465Z,99880.13
2019-04-27T11:57:59.893Z,99874.85
2019-04-27T12:00:29.935Z,99876.34
2019-04-27T12:03:01.323Z,99866.70
2019-04-27T12:05:32.423Z,99866.69
2019-04-27T12:08:01.850Z,99865.99
2019-04-27T12:10:31.765Z,99875.23
2019-04-27T12:13:01.385Z,99877.50
2019-04-27T12:15:31.204Z,99889.66
2019-04-27T12:18:01.386Z,99897.73
2019-04-27T12:20:32.903Z,99901.30
2019-04-27T12:23:02.680Z,99901.11
2019-04-27T12:25:32.540Z,99913.61
2019-04-27T12:28:17.911Z,99919.63
2019-04-27T12:31:08.801Z,99918.97
2019-04-27T12:33:40.761Z,99930.00
2019-04-27T12:36:10.488Z,99926.73
2019-04-27T12:38:42.506Z,99925.17
2019-04-27T12:41:13.616Z,99918.59
2019-04-27T12:43:43.455Z,99921.58
2019-04-27T12:46:16.064Z,99919.59
2019-04-27T12:48:46.100Z,99926.25
2019-04-27T12:51:16.123Z,99919.91
2019-04-27T12:54:16.518Z,99912.41
2019-04-27T13:00:19.437Z,99911.17
2019-04-27T13:02:52.000Z,99896.72
2019-04-27T13:05:21.474Z,99885.57
2019-04-27T13:07:51.440Z,99881.89
2019-04-27T13:10:24.699Z,99884.56
2019-04-27T13:12:56.205Z,99872.23
2019-04-27T13:15:28.270Z,99862.88
2019-04-27T13:17:58.937Z,99856.55
2019-04-27T13:20:28.434Z,99851.55
2019-04-27T13:22:58.196Z,99853.09
2019-04-27T13:25:29.393Z,99851.69
2019-04-27T13:27:58.929Z,99861.31
2019-04-27T13:30:28.463Z,99863.68
2019-04-27T13:32:58.376Z,99856.04
2019-04-27T13:35:28.052Z,99861.13
2019-04-27T13:37:57.588Z,99860.01
2019-04-27T13:40:27.498Z,99855.39
2019-04-27T13:43:16.695Z,99858.56
2019-04-27T13:46:08.001Z,99835.02
2019-04-27T13:48:56.272Z,99838.77
2019-04-27T13:51:44.194Z,99828.88
2019-04-27T13:54:23.121Z,99817.64
2019-04-27T13:56:47.645Z,99810.77
2019-04-27T13:59:18.716Z,99807.08
2019-04-27T14:01:48.829Z,99806.75
2019-04-27T14:04:19.166Z,99810.80
2019-04-27T14:06:50.747Z,99814.69
2019-04-27T14:09:21.020Z,99808.87
2019-04-27T14:11:52.980Z,99811.58
2019-04-27T14:14:24.399Z,99807.08
2019-04-27T14:16:54.636Z,99799.12
2019-04-27T14:19:25.569Z,99787.39
2019-04-27T14:21:55.114Z,99793.67
2019-04-27T14:24:38.789Z,99783.97
2019-04-27T14:27:09.933Z,99781.68
2019-04-27T14:29:40.210Z,99773.29
2019-04-27T14:32:09.779Z,99769.61
2019-04-27T14:34:40.073Z,99763.41
2019-04-27T14:37:11.800Z,99760.61
2019-04-27T14:39:42.348Z,99752.03
2019-04-27T14:42:11.797Z,99748.14
2019-04-27T14:44:45.285Z,99739.33
2019-04-27T14:47:18.861Z,99744.78
2019-04-27T14:49:49.263Z,99741.58
2019-04-27T14:52:18.869Z,99741.84
2019-04-27T14:54:50.789Z,99739.08
2019-04-27T14:57:20.567Z,99739.93
2019-04-27T14:59:52.839Z,99736.68
2019-04-27T15:02:22.474Z,99733.05
2019-04-27T15:04:52.200Z,99732.80
2019-04-27T15:07:22.161Z,99739.33
2019-04-27T15:09:54.404Z,99741.55
2019-04-27T15:12:30.413Z,99740.99
2019-04-27T15:14:57.387Z,99751.17
2019-04-27T15:17:27.253Z,99755.27
2019-04-27T15:20:02.266Z,99763.66
2019-04-27T15:22:32.768Z,99792.24
2019-04-27T15:25:35.008Z,99788.27
2019-04-27T15:28:16.758Z,99809.46
2019-04-27T15:31:26.250Z,99801.26
2019-04-27T15:34:11.088Z,99816.10
2019-04-27T15:37:00.703Z,99811.50
2019-04-27T15:39:50.563Z,99812.85
2019-04-27T15:42:28.333Z,99825.54
2019-04-27T15:44:58.505Z,99830.38
2019-04-27T15:47:28.620Z,99830.22
2019-04-27T15:49:58.958Z,99819.21
2019-04-27T15:52:30.260Z,99829.72
2019-04-27T15:55:02.877Z,99826.36
2019-04-27T15:57:32.369Z,99831.34
2019-04-27T16:00:04.874Z,99821.03
2019-04-27T16:02:34.482Z,99827.42
2019-04-27T16:05:08.229Z,99824.98
2019-04-27T16:07:38.889Z,99829.60
2019-04-27T16:10:09.054Z,99835.00
2019-04-27T16:12:47.481Z,99831.23
2019-04-27T16:15:13.393Z,99839.25
2019-04-27T16:17:50.931Z,99835.60
2019-04-27T16:20:29.250Z,99835.63
2019-04-27T16:22:51.161Z,99838.02
2019-04-27T16:25:23.533Z,99839.16
2019-04-27T16:27:52.454Z,99835.38
2019-04-27T16:30:25.007Z,99838.83
2019-04-27T16:32:55.956Z,99835.74
2019-04-27T16:35:25.435Z,99830.52
2019-04-27T16:38:18.389Z,99829.52
2019-04-27T16:40:48.673Z,99833.19
2019-04-27T16:43:18.840Z,99832.84
2019-04-27T16:45:48.848Z,99832.66
2019-04-27T16:48:19.662Z,99829.36
2019-04-27T16:50:49.191Z,99838.50
2019-04-27T16:53:19.117Z,99842.27
2019-04-27T16:56:01.018Z,99843.80
2019-04-27T16:58:22.665Z,99843.08
2019-04-27T17:00:52.823Z,99841.03
2019-04-27T17:03:31.551Z,99857.71
2019-04-27T17:06:04.100Z,99847.48
2019-04-27T17:08:34.400Z,99852.59
2019-04-27T17:11:11.407Z,99853.04
2019-04-27T17:13:44.330Z,99854.45
2019-04-27T17:16:34.063Z,99860.73
2019-04-27T17:19:19.719Z,99870.41
2019-04-27T17:21:50.227Z,99873.28
2019-04-27T17:24:46.364Z,99873.56
2019-04-27T17:27:16.298Z,99869.88
2019-04-27T17:29:50.098Z,99867.42
2019-04-27T17:32:39.050Z,99863.84
2019-04-27T17:35:14.581Z,99863.47
2019-04-27T17:37:40.159Z,99867.14
2019-04-27T17:40:10.787Z,99871.66
2019-04-27T17:42:43.094Z,99879.08
2019-04-27T17:45:13.533Z,99874.28
2019-04-27T17:47:43.401Z,99882.59
2019-04-27T17:50:18.458Z,99880.56
2019-04-27T17:52:48.498Z,99877.23
2019-04-27T17:55:24.068Z,99881.50
2019-04-27T17:57:50.418Z,99882.50
2019-04-27T18:00:21.247Z,99884.16
2019-04-27T18:02:53.423Z,99883.98
2019-04-27T18:05:28.397Z,99878.06
2019-04-27T18:07:59.122Z,99881.43
2019-04-27T18:10:28.909Z,99883.56
2019-04-27T18:13:00.858Z,99888.74
2019-04-27T18:15:31.109Z,99878.28
2019-04-27T18:18:03.884Z,99874.92
2019-04-27T18:20:33.180Z,99892.52
2019-04-27T18:23:15.235Z,99891.66
2019-04-27T18:25:48.127Z,99889.05
2019-04-27T18:28:21.638Z,99895.16
2019-04-27T18:31:17.728Z,99900.48
2019-04-27T18:33:49.010Z,99902.45
2019-04-27T18:36:19.202Z,99903.33
2019-04-27T18:38:49.787Z,99905.83
2019-04-27T18:41:20.078Z,99903.69
2019-04-27T18:43:52.139Z,99910.85
2019-04-27T18:46:24.515Z,99913.02
2019-04-27T18:49:11.307Z,99913.17
2019-04-27T18:52:09.749Z,99916.16
2019-04-27T18:54:41.877Z,99914.83
2019-04-27T18:57:15.250Z,99919.73
2019-04-27T18:59:43.005Z,99914.94
2019-04-27T19:02:16.015Z,99923.52
2019-04-27T19:04:50.153Z,99929.94
2019-04-27T19:07:21.930Z,99932.59
2019-04-27T19:09:53.380Z,99935.88
2019-04-27T19:12:23.798Z,99937.56
2019-04-27T19:14:53.457Z,99937.20
2019-04-27T19:17:24.291Z,99931.27
2019-04-27T19:19:55.334Z,99932.66
2019-04-27T19:22:24.853Z,99937.74
2019-04-27T19:24:55.219Z,99932.59
2019-04-27T19:27:48.567Z,99945.56
2019-04-27T19:30:46.554Z,99942.61
2019-04-27T19:33:18.144Z,99946.03
2019-04-27T19:35:48.795Z,99943.27
2019-04-27T19:38:18.679Z,99950.87
2019-04-27T19:40:50.890Z,99963.48
2019-04-27T19:43:21.449Z,99965.14
2019-04-27T19:45:58.488Z,99969.16
2019-04-27T19:48:31.996Z,99971.09
2019-04-27T19:51:03.952Z,99972.39
2019-04-27T19:53:35.763Z,99974.56
2019-04-27T19:56:07.419Z,99969.34
2019-04-27T19:58:43.001Z,99963.50
2019-04-27T20:01:38.355Z,99976.72
2019-04-27T20:04:30.871Z,99987.80
2019-04-27T20:07:10.395Z,99985.25
2019-04-27T20:09:59.646Z,99986.58
2019-04-27T20:12:31.454Z,99988.09
2019-04-27T20:15:05.416Z,99980.92
2019-04-27T20:17:36.989Z,99979.94
2019-04-27T20:20:07.436Z,99983.87
2019-04-27T20:22:38.764Z,99981.25
2019-04-27T20:25:11.223Z,99994.28
2019-04-27T20:27:49.326Z,99999.30
2019-04-27T20:30:18.793Z,99989.11
2019-04-27T20:33:00.990Z,99993.30
2019-04-27T20:35:32.542Z,99990.31
2019-04-27T20:38:02.057Z,99990.20
2019-04-27T20:40:33.350Z,99990.66
2019-04-27T20:43:04.042Z,99990.33
2019-04-27T20:45:36.773Z,99999.09
2019-04-27T20:48:11.098Z,100012.42
2019-04-27T20:50:41.538Z,100025.04
2019-04-27T20:53:20.867Z,100028.88
2019-04-27T20:55:51.052Z,100037.17
2019-04-27T20:58:25.058Z,100049.06
2019-04-27T21:00:54.940Z,100058.09
2019-04-27T21:03:34.363Z,100056.64
2019-04-27T21:06:11.847Z,100055.92
2019-04-27T21:08:42.110Z,100068.52
2019-04-27T21:11:17.041Z,100072.72
2019-04-27T21:13:48.590Z,100062.88
2019-04-27T21:16:21.141Z,100066.27
2019-04-27T21:18:53.185Z,100065.88
2019-04-27T21:21:30.503Z,100066.59
2019-04-27T21:24:00.991Z,100067.33
2019-04-27T21:26:34.998Z,100073.19
2019-04-27T21:29:11.567Z,100078.23
2019-04-27T21:31:42.140Z,100075.45
2019-04-27T21:34:14.497Z,100074.11
2019-04-27T21:36:46.175Z,100074.37
2019-04-27T21:39:22.736Z,100082.75
2019-04-27T21:42:11.097Z,100076.16
2019-04-27T21:44:42.187Z,100081.81
2019-04-27T21:47:12.567Z,100076.89
2019-04-27T21:49:42.929Z,100078.44
2019-04-27T21:52:29.487Z,100086.95
2019-04-27T21:55:01.522Z,100086.24
2019-04-27T21:57:31.572Z,100082.86
2019-04-27T22:00:07.206Z,100089.83
2019-04-27T22:02:36.735Z,100092.48
2019-04-27T22:05:07.795Z,100098.58
2019-04-27T22:07:38.626Z,100099.31
2019-04-27T22:10:08.289Z,100087.22
2019-04-27T22:12:39.153Z,100090.08
2019-04-27T22:15:11.125Z,100085.28
2019-04-27T22:17:42.357Z,100087.68
2019-04-27T22:20:11.909Z,100091.50
2019-04-27T22:22:46.821Z,100084.07
2019-04-27T22:25:29.699Z,100088.36
2019-04-27T22:28:01.562Z,100084.40
2019-04-27T22:30:32.618Z,100089.80
2019-04-27T22:33:03.163Z,100096.39
2019-04-27T22:35:36.475Z,100095.20
2019-04-27T22:38:06.026Z,100110.54
2019-04-27T22:40:41.901Z,100112.35
2019-04-27T22:43:31.578Z,100104.08
2019-04-27T22:46:03.585Z,100107.22
2019-04-27T22:48:34.063Z,100116.33
2019-04-27T22:51:04.876Z,100112.15
2019-04-27T22:53:35.920Z,100109.02
2019-04-27T22:56:14.081Z,100122.58
2019-04-27T22:58:59.983Z,100123.19
2019-04-27T23:01:26.894Z,100122.80
2019-04-27T23:03:57.858Z,100128.70
2019-04-27T23:06:28.983Z,100125.70
2019-04-27T23:09:01.662Z,100132.89
2019-04-27T23:11:34.121Z,100138.91
2019-04-27T23:14:05.446Z,100137.11
2019-04-27T23:16:37.503Z,100135.44
2019-04-27T23:19:07.088Z,100136.05
2019-04-27T23:21:37.365Z,100140.38
2019-04-27T23:24:08.589Z,100136.90
2019-04-27T23:26:38.432Z,100142.63
2019-04-27T23:29:13.745Z,100142.88
2019-04-27T23:31:54.249Z,100140.80
2019-04-27T23:34:24.303Z,100147.07
2019-04-27T23:36:54.363Z,100152.94
2019-04-27T23:39:26.604Z,100144.43
2019-04-27T23:41:57.001Z,100147.16
2019-04-27T23:44:27.010Z,100149.81
2019-04-27T23:46:56.571Z,100147.03
2019-04-27T23:49:26.845Z,100149.20
2019-04-27T23:52:06.181Z,100146.81
2019-04-27T23:54:38.636Z,100144.98
2019-04-27T23:57:09.050Z,100140.88
2019-04-27T23:59:38.520Z,100140.39
